This is the latest recevied weather packets stored in our database for station/object KD4EG. If no packets are shown the sender has not sent any weather packets the latest 10 day(s).
| Time | Temp. | Humidity | Pressure | Rain* | Wind** | Luminosity | Snow |
|---|---|---|---|---|---|---|---|
| 1777574537 | 19.44° C | 39% | 1012.7 hPa | 0 mm | - | 670 W/m² | - |
| 1777574232 | 19.44° C | 39% | 1012.8 hPa | 0 mm | - | 655 W/m² | - |
| 1777573928 | 18.89° C | 41% | 1012.9 hPa | 0 mm | - | 662 W/m² | - |
| 1777573622 | 19.44° C | 43% | 1012.7 hPa | 0 mm | - | 670 W/m² | - |
| 1777573319 | 19.44° C | 42% | 1012.6 hPa | 0 mm | - | 675 W/m² | - |
| 1777573015 | 18.89° C | 43% | 1012.8 hPa | 0 mm | - | 605 W/m² | - |
| 1777572710 | 18.89° C | 43% | 1012.8 hPa | 0 mm | - | 620 W/m² | - |
| 1777572405 | 18.89° C | 43% | 1012.5 hPa | 0 mm | - | 668 W/m² | - |
| 1777572103 | 18.33° C | 44% | 1012.5 hPa | 0 mm | - | 723 W/m² | - |
| 1777571797 | 18.33° C | 44% | 1012.5 hPa | 0 mm | - | 743 W/m² | - |
| 1777571494 | 18.89° C | 44% | 1012.4 hPa | 0 mm | - | 754 W/m² | - |
| 1777571191 | 18.89° C | 42% | 1012.7 hPa | 0 mm | - | 720 W/m² | - |
| 1777570886 | 18.33° C | 45% | 1012.6 hPa | 0 mm | - | 696 W/m² | - |
| 1777570582 | 18.33° C | 44% | 1012.4 hPa | 0 mm | - | 163 W/m² | - |
| 1777570279 | 18.33° C | 45% | 1012.9 hPa | 0 mm | - | 682 W/m² | - |
| 1777569975 | 18.89° C | 44% | 1013 hPa | 0 mm | - | 628 W/m² | - |
| 1777569671 | 18.89° C | 46% | 1013 hPa | 0 mm | - | 644 W/m² | - |
| 1777569367 | 18.89° C | 46% | 1013 hPa | 0 mm | - | 747 W/m² | - |
| 1777569063 | 19.44° C | 43% | 1012.9 hPa | 0 mm | - | 731 W/m² | - |
| 1777568760 | 18.89° C | 46% | 1013.2 hPa | 0 mm | - | 747 W/m² | - |
| 1777568458 | 17.78° C | 47% | 1012.9 hPa | 0 mm | - | 752 W/m² | - |
| 1777568154 | 17.78° C | 47% | 1013.4 hPa | 0 mm | - | 718 W/m² | - |
| 1777567851 | 17.22° C | 49% | 1013.3 hPa | 0 mm | - | 679 W/m² | - |
| 1777567547 | 17.78° C | 48% | 1013.3 hPa | 0 mm | - | 670 W/m² | - |
| 1777567244 | 17.78° C | 48% | 1013.3 hPa | 0 mm | - | 664 W/m² | - |
* Rain latest hour (hover to see other rain measurements)
** Current wind speed in m/s (hover to see current wind gust speed)